Time;durP1;ratioP1;P1;durP2;ratioP2;P2;SDS_P1;SDS_P2;PMS_P1;PMS_P2;Temp;Humidity;BMP_temperature;BMP_pressure;BME280_temperature;BME280_humidity;BME280_pressure;Samples;Min_cycle;Max_cycle;Signal;HPM_P1;HPM_P2
2022/08/26 00:02:11;;;;;;;17.00;9.80;;;16.50;99.90;;;;;;5020322;28;20053;-86
2022/08/26 00:04:39;;;;;;;15.95;9.68;;;16.50;99.90;;;;;;5053674;28;20507;-87
2022/08/26 00:07:08;;;;;;;19.58;11.25;;;16.50;99.90;;;;;;5028556;28;20060;-87
2022/08/26 00:09:37;;;;;;;21.83;11.73;;;16.50;99.90;;;;;;5044713;28;20052;-86
2022/08/26 00:12:08;;;;;;;19.67;11.77;;;16.40;99.90;;;;;;5031986;28;20040;-88
2022/08/26 00:14:39;;;;;;;22.75;12.40;;;16.40;99.90;;;;;;5026416;28;20445;-87
2022/08/26 00:17:07;;;;;;;21.17;11.88;;;16.30;99.90;;;;;;5049626;28;20041;-86
2022/08/26 00:19:35;;;;;;;22.88;12.43;;;16.30;99.90;;;;;;5029928;28;20055;-86
2022/08/26 00:22:03;;;;;;;19.85;12.15;;;16.30;99.90;;;;;;5028678;28;20065;-87
2022/08/26 00:24:31;;;;;;;23.73;12.40;;;16.30;99.90;;;;;;5025807;28;20053;-87
2022/08/26 00:26:59;;;;;;;22.88;12.88;;;16.20;99.90;;;;;;5033430;28;20404;-86
2022/08/26 00:29:27;;;;;;;25.45;14.00;;;16.20;99.90;;;;;;5049746;28;20049;-87
2022/08/26 00:31:58;;;;;;;;;;;16.20;99.90;;;;;;5048025;28;20041;-86
2022/08/26 00:34:26;;;;;;;20.73;11.95;;;16.10;99.90;;;;;;5048709;28;19944;-86
2022/08/26 00:36:54;;;;;;;21.65;13.68;;;16.10;99.90;;;;;;5053457;28;20049;-87
2022/08/26 00:39:22;;;;;;;24.92;13.50;;;16.10;99.90;;;;;;5042533;28;20108;-87
2022/08/26 00:41:50;;;;;;;23.60;13.65;;;16.10;99.90;;;;;;5053030;28;20052;-86
2022/08/26 00:44:19;;;;;;;25.05;14.18;;;16.20;99.90;;;;;;5049604;28;20057;-87
2022/08/26 00:46:53;;;;;;;24.10;12.98;;;16.20;99.90;;;;;;5029893;28;20053;-86
2022/08/26 00:49:33;;;;;;;23.70;13.52;;;16.30;99.90;;;;;;5015419;28;20056;-86
2022/08/26 00:52:07;;;;;;;24.88;13.05;;;16.30;99.90;;;;;;5051545;28;20071;-85
2022/08/26 00:54:57;;;;;;;23.20;14.52;;;16.40;99.90;;;;;;5052702;28;20052;-85
2022/08/26 00:57:26;;;;;;;33.70;14.63;;;16.40;99.90;;;;;;5036438;28;20064;-88
2022/08/26 00:59:58;;;;;;;;;;;16.40;99.90;;;;;;5032625;28;20041;-87
2022/08/26 01:02:27;;;;;;;25.67;14.10;;;16.50;99.90;;;;;;5025483;28;19920;-85
2022/08/26 01:05:00;;;;;;;22.20;13.05;;;16.50;99.90;;;;;;5014676;28;20049;-87
2022/08/26 01:07:33;;;;;;;22.10;12.63;;;16.50;99.90;;;;;;5046144;28;20048;-86
2022/08/26 01:10:09;;;;;;;24.50;12.00;;;16.60;99.90;;;;;;5029236;28;20056;-85
2022/08/26 01:12:45;;;;;;;24.05;13.48;;;16.60;99.90;;;;;;5060146;28;20057;-85
2022/08/26 01:15:19;;;;;;;22.48;13.30;;;16.60;99.90;;;;;;5046183;28;20076;-88
2022/08/26 01:17:47;;;;;;;27.40;14.60;;;16.60;99.90;;;;;;5013897;28;20075;-86
2022/08/26 01:20:54;;;;;;;22.40;13.23;;;16.60;99.90;;;;;;5046853;28;20448;-87
2022/08/26 01:23:29;;;;;;;26.17;15.45;;;16.60;99.90;;;;;;4972954;28;20401;-86
2022/08/26 01:26:03;;;;;;;28.05;14.90;;;16.50;99.90;;;;;;5034747;28;20053;-85
2022/08/26 01:28:33;;;;;;;23.80;14.10;;;16.50;99.90;;;;;;5042787;28;20052;-85
2022/08/26 01:31:04;;;;;;;26.00;14.43;;;16.40;99.90;;;;;;5025782;28;20057;-88
2022/08/26 01:33:44;;;;;;;29.47;15.53;;;16.30;99.90;;;;;;5054050;28;20060;-86
2022/08/26 01:36:14;;;;;;;23.08;15.30;;;16.30;99.90;;;;;;5053468;28;20049;-87
2022/08/26 01:38:43;;;;;;;25.52;16.08;;;16.30;99.90;;;;;;5013887;28;20045;-87
2022/08/26 01:41:13;;;;;;;28.45;15.85;;;16.20;99.90;;;;;;5044850;28;20049;-87
2022/08/26 01:43:51;;;;;;;29.17;16.25;;;16.20;99.90;;;;;;5015691;28;20068;-85
2022/08/26 01:46:22;;;;;;;23.85;15.13;;;16.10;99.90;;;;;;5003420;28;20049;-88
2022/08/26 01:48:51;;;;;;;29.67;14.00;;;16.10;99.90;;;;;;5051634;28;20053;-88
2022/08/26 01:51:23;;;;;;;26.13;16.45;;;16.10;99.90;;;;;;5021906;28;20519;-88
2022/08/26 01:53:51;;;;;;;23.63;15.80;;;16.00;99.90;;;;;;5052372;28;20400;-88
2022/08/26 01:56:22;;;;;;;27.15;16.05;;;15.90;99.90;;;;;;5050948;28;20067;-88
2022/08/26 01:58:54;;;;;;;26.42;18.55;;;15.90;99.90;;;;;;5051131;28;20049;-88
2022/08/26 02:01:24;;;;;;;21.77;13.93;;;15.90;99.90;;;;;;5017679;28;20041;-88
2022/08/26 02:04:20;;;;;;;31.83;16.15;;;15.90;99.90;;;;;;5050342;28;20057;-88
2022/08/26 02:06:52;;;;;;;24.42;14.82;;;15.80;99.90;;;;;;5032559;28;20038;-88
2022/08/26 02:09:23;;;;;;;28.48;16.30;;;15.80;99.90;;;;;;5045162;28;20068;-87
2022/08/26 02:11:54;;;;;;;22.75;13.43;;;15.80;99.90;;;;;;5051525;28;20049;-88
2022/08/26 02:14:28;;;;;;;28.20;15.73;;;15.80;99.90;;;;;;5034722;28;20049;-88
2022/08/26 02:16:56;;;;;;;24.77;14.02;;;15.80;99.90;;;;;;5031616;28;20045;-88
2022/08/26 02:19:30;;;;;;;25.05;14.80;;;15.70;99.90;;;;;;5046441;28;20045;-88
2022/08/26 02:22:02;;;;;;;25.65;15.85;;;15.70;99.90;;;;;;5037818;28;20045;-88
2022/08/26 02:25:06;;;;;;;32.47;15.77;;;15.60;99.90;;;;;;5050910;28;20052;-88
2022/08/26 02:27:35;;;;;;;28.73;17.23;;;15.60;99.90;;;;;;5042229;28;20041;-89
2022/08/26 02:30:06;;;;;;;27.00;15.43;;;15.50;99.90;;;;;;5067462;28;20056;-87
2022/08/26 02:32:33;;;;;;;27.27;15.25;;;15.40;99.90;;;;;;5039385;28;20045;-88
2022/08/26 02:35:01;;;;;;;25.10;15.43;;;15.30;99.90;;;;;;5038316;28;20052;-88
2022/08/26 02:37:31;;;;;;;25.92;15.70;;;15.20;99.90;;;;;;5064632;28;20056;-87
2022/08/26 02:40:00;;;;;;;25.20;14.38;;;15.20;99.90;;;;;;5034868;28;20045;-88
2022/08/26 02:42:29;;;;;;;25.88;16.67;;;15.10;99.90;;;;;;5018984;28;20503;-88
2022/08/26 02:44:57;;;;;;;27.63;16.05;;;15.10;99.90;;;;;;5068514;28;20048;-88
2022/08/26 02:47:27;;;;;;;28.00;16.70;;;15.00;99.90;;;;;;5068262;28;20044;-87
2022/08/26 02:49:59;;;;;;;23.50;14.93;;;15.00;99.90;;;;;;5031595;28;20511;-87
2022/08/26 02:52:29;;;;;;;27.50;15.95;;;15.00;99.90;;;;;;5046925;28;20049;-87
2022/08/26 02:54:59;;;;;;;25.05;15.48;;;15.00;99.90;;;;;;5033982;28;20167;-87
2022/08/26 02:57:29;;;;;;;23.25;14.00;;;14.90;99.90;;;;;;5051485;28;20045;-88
2022/08/26 02:59:59;;;;;;;22.73;14.15;;;14.80;99.90;;;;;;5031725;28;20054;-87
2022/08/26 03:02:28;;;;;;;34.72;14.68;;;14.80;99.90;;;;;;5052308;28;20037;-88
2022/08/26 03:04:56;;;;;;;27.15;15.85;;;14.70;99.90;;;;;;5055134;28;20041;-87
2022/08/26 03:07:30;;;;;;;24.05;15.23;;;14.70;99.90;;;;;;5069085;28;20045;-88
2022/08/26 03:09:59;;;;;;;24.17;15.45;;;14.70;99.90;;;;;;5069819;28;20029;-88
2022/08/26 03:12:27;;;;;;;27.88;14.13;;;14.70;99.90;;;;;;5089609;28;20033;-88
2022/08/26 03:14:56;;;;;;;26.88;15.23;;;14.60;99.90;;;;;;5070544;28;20043;-88
2022/08/26 03:17:24;;;;;;;22.65;14.70;;;14.60;99.90;;;;;;5045419;28;20049;-87
2022/08/26 03:19:54;;;;;;;28.33;15.80;;;14.50;99.90;;;;;;5060591;28;20044;-87
2022/08/26 03:22:24;;;;;;;26.20;15.70;;;14.50;99.90;;;;;;5054649;28;20056;-87
2022/08/26 03:24:54;;;;;;;24.80;14.60;;;14.50;99.90;;;;;;5045118;28;20053;-87
2022/08/26 03:27:21;;;;;;;24.58;14.23;;;14.50;99.90;;;;;;5067556;28;20048;-87
2022/08/26 03:32:38;;;;;;;28.50;16.38;;;14.40;99.90;;;;;;5067148;28;20045;-88
2022/08/26 03:35:08;;;;;;;24.27;15.23;;;14.30;99.90;;;;;;5050795;28;20049;-86
2022/08/26 03:37:37;;;;;;;26.58;15.40;;;14.30;99.90;;;;;;5033994;28;20650;-87
2022/08/26 03:40:09;;;;;;;25.48;14.55;;;14.30;99.90;;;;;;5031408;28;20495;-87
2022/08/26 03:42:38;;;;;;;25.95;15.68;;;14.20;99.90;;;;;;5029557;28;20045;-87
2022/08/26 03:45:09;;;;;;;23.98;14.68;;;14.20;99.90;;;;;;5040567;28;20351;-87
2022/08/26 03:47:38;;;;;;;27.88;16.90;;;14.20;99.90;;;;;;5033612;28;20053;-88
2022/08/26 03:50:08;;;;;;;24.90;16.17;;;14.10;99.90;;;;;;5029646;28;20050;-88
2022/08/26 03:52:36;;;;;;;27.88;16.33;;;14.10;99.90;;;;;;5045383;28;20040;-87
2022/08/26 03:55:10;;;;;;;25.75;16.10;;;14.10;99.90;;;;;;5034613;28;20052;-87
2022/08/26 03:57:38;;;;;;;24.67;14.93;;;14.10;99.90;;;;;;5050776;28;20053;-87
2022/08/26 04:00:14;;;;;;;25.65;16.52;;;14.10;99.90;;;;;;5014833;28;20061;-86
2022/08/26 04:02:47;;;;;;;30.27;16.10;;;14.00;99.90;;;;;;5045895;28;20048;-87
2022/08/26 04:05:17;;;;;;;26.30;16.57;;;14.00;99.90;;;;;;5049559;28;20534;-86
2022/08/26 04:07:45;;;;;;;27.13;15.65;;;14.00;99.90;;;;;;5033737;28;20052;-88
2022/08/26 04:10:17;;;;;;;31.42;18.08;;;14.00;99.90;;;;;;5033146;28;20064;-87
2022/08/26 04:12:47;;;;;;;29.60;17.65;;;14.00;99.90;;;;;;5036272;28;20520;-87
2022/08/26 04:15:15;;;;;;;26.52;16.10;;;13.90;99.90;;;;;;5052051;28;20049;-87
2022/08/26 04:17:44;;;;;;;27.70;14.55;;;13.90;99.90;;;;;;5031348;28;20496;-87
2022/08/26 04:20:12;;;;;;;26.02;14.82;;;13.90;99.90;;;;;;5031081;28;20049;-87
2022/08/26 04:22:44;;;;;;;25.42;16.33;;;13.90;99.90;;;;;;5026313;28;20656;-87
2022/08/26 04:25:13;;;;;;;27.17;16.08;;;13.90;99.90;;;;;;5033208;28;20064;-86
2022/08/26 04:27:41;;;;;;;30.95;14.30;;;13.90;99.90;;;;;;5049767;28;20056;-87
2022/08/26 04:30:09;;;;;;;28.45;17.33;;;13.90;99.90;;;;;;5032781;28;20425;-86
2022/08/26 04:32:37;;;;;;;26.58;15.98;;;13.80;99.90;;;;;;5053497;28;20052;-88
2022/08/26 04:35:05;;;;;;;28.42;18.23;;;13.80;99.90;;;;;;5039135;28;20507;-87
2022/08/26 04:37:35;;;;;;;28.50;15.63;;;13.80;99.90;;;;;;5049713;28;20045;-89
2022/08/26 04:40:04;;;;;;;27.92;16.20;;;13.80;99.90;;;;;;5049088;28;20396;-88
2022/08/26 04:42:32;;;;;;;28.05;16.92;;;13.80;99.90;;;;;;5031411;28;20049;-85
2022/08/26 04:45:02;;;;;;;28.80;17.33;;;13.80;99.90;;;;;;5031301;28;20045;-86
2022/08/26 04:47:36;;;;;;;32.22;17.13;;;13.80;99.90;;;;;;4687802;27;9999875;-88
2022/08/26 04:50:05;;;;;;;29.48;16.80;;;13.80;99.90;;;;;;5045290;28;20045;-88
2022/08/26 04:52:35;;;;;;;30.77;16.70;;;13.70;99.90;;;;;;5027916;28;20049;-87
2022/08/26 04:55:04;;;;;;;26.63;16.02;;;13.70;99.90;;;;;;5047765;28;20045;-87
2022/08/26 04:57:35;;;;;;;28.20;18.70;;;13.70;99.90;;;;;;5046122;28;20049;-87
2022/08/26 05:00:06;;;;;;;28.95;17.83;;;13.70;99.90;;;;;;5046858;28;20041;-88
2022/08/26 05:02:35;;;;;;;25.15;15.57;;;13.70;99.90;;;;;;5031786;28;20056;-87
2022/08/26 05:05:04;;;;;;;27.67;17.20;;;13.70;99.90;;;;;;5035394;28;20045;-87
2022/08/26 05:07:33;;;;;;;29.67;15.82;;;13.70;99.90;;;;;;5053607;28;20534;-87
2022/08/26 05:10:02;;;;;;;30.20;17.38;;;13.70;99.90;;;;;;5039198;28;20061;-87
2022/08/26 05:12:36;;;;;;;26.98;17.00;;;13.70;99.90;;;;;;5025804;28;20064;-86
2022/08/26 05:15:05;;;;;;;24.40;15.60;;;13.70;99.90;;;;;;5057101;28;20496;-88
2022/08/26 05:17:34;;;;;;;26.75;16.45;;;13.70;99.90;;;;;;5022797;28;20064;-87
2022/08/26 05:20:03;;;;;;;27.65;17.00;;;13.70;99.90;;;;;;5054874;28;20472;-87
2022/08/26 05:22:32;;;;;;;29.05;17.98;;;13.70;99.90;;;;;;5031510;28;20044;-87
2022/08/26 05:25:04;;;;;;;27.17;15.90;;;13.70;99.90;;;;;;5037588;28;20516;-87
2022/08/26 05:27:33;;;;;;;24.70;15.27;;;13.70;99.90;;;;;;5053018;28;20053;-87
2022/08/26 05:30:00;;;;;;;28.73;15.30;;;13.70;99.90;;;;;;5020823;28;20049;-87
2022/08/26 05:32:29;;;;;;;30.13;16.67;;;13.70;99.90;;;;;;5052496;28;20518;-87
2022/08/26 05:34:58;;;;;;;27.90;16.52;;;13.80;99.90;;;;;;5051636;28;20444;-86
2022/08/26 05:37:27;;;;;;;24.48;15.68;;;13.80;99.90;;;;;;5052232;28;20045;-87
2022/08/26 05:39:54;;;;;;;33.03;17.35;;;13.80;99.90;;;;;;5051328;28;20041;-88
2022/08/26 05:42:23;;;;;;;27.85;16.02;;;13.80;99.90;;;;;;5018017;28;20415;-87
2022/08/26 05:44:52;;;;;;;23.60;14.45;;;13.80;99.90;;;;;;5034905;28;20381;-87
2022/08/26 05:47:23;;;;;;;26.95;16.08;;;13.80;99.90;;;;;;5035905;28;20531;-87
2022/08/26 05:49:51;;;;;;;27.13;16.25;;;13.90;99.90;;;;;;5036305;28;20402;-87
2022/08/26 05:52:19;;;;;;;24.25;14.13;;;13.90;99.90;;;;;;5036525;28;20063;-88
2022/08/26 05:54:51;;;;;;;27.80;15.10;;;14.00;99.90;;;;;;5022975;28;20060;-88
2022/08/26 05:57:19;;;;;;;26.60;15.02;;;14.00;99.90;;;;;;5038728;28;20056;-87
2022/08/26 05:59:50;;;;;;;24.35;13.30;;;14.10;99.90;;;;;;5037771;28;20052;-87
2022/08/26 06:02:19;;;;;;;26.65;15.55;;;14.10;99.90;;;;;;5050062;28;20051;-88
2022/08/26 06:04:47;;;;;;;25.50;14.68;;;14.20;99.90;;;;;;5065212;28;20036;-87
2022/08/26 06:07:15;;;;;;;23.25;13.18;;;14.20;99.90;;;;;;5049832;28;20048;-87
2022/08/26 06:09:45;;;;;;;33.65;15.85;;;14.20;99.90;;;;;;5039043;28;20068;-88
2022/08/26 06:12:12;;;;;;;22.92;12.63;;;14.30;99.90;;;;;;5040102;28;20064;-87
2022/08/26 06:14:41;;;;;;;22.02;13.02;;;14.30;99.90;;;;;;5024866;28;20053;-88
2022/08/26 06:17:09;;;;;;;23.98;13.55;;;14.40;99.90;;;;;;5056165;28;20041;-87
2022/08/26 06:19:36;;;;;;;27.58;16.33;;;14.40;99.90;;;;;;5030092;28;20045;-87
2022/08/26 06:25:36;;;;;;;22.92;14.13;;;14.50;99.90;;;;;;5047533;28;20488;-86
2022/08/26 06:27:43;;;;;;;27.00;15.25;;;14.50;99.90;;;;;;5046324;28;20543;-86
2022/08/26 06:30:11;;;;;;;23.38;13.48;;;14.60;99.90;;;;;;5039591;28;20061;-86
2022/08/26 06:32:39;;;;;;;21.33;12.05;;;14.60;99.90;;;;;;5055160;28;20041;-87
2022/08/26 06:35:07;;;;;;;19.45;11.13;;;14.70;99.90;;;;;;5053222;28;20049;-87
2022/08/26 06:37:42;;;;;;;25.88;14.80;;;14.70;99.90;;;;;;5050102;28;20037;-87
2022/08/26 06:40:10;;;;;;;29.05;15.65;;;14.80;99.90;;;;;;5035196;28;20057;-86
2022/08/26 06:42:39;;;;;;;23.25;13.70;;;14.90;99.90;;;;;;5047429;28;20187;-87
2022/08/26 06:45:07;;;;;;;27.58;15.43;;;14.90;99.90;;;;;;5046950;28;20059;-86
2022/08/26 06:47:35;;;;;;;30.20;14.35;;;15.00;99.90;;;;;;5044208;28;20049;-87
2022/08/26 06:50:03;;;;;;;27.98;15.25;;;15.10;99.90;;;;;;5062384;28;20052;-87
2022/08/26 06:52:31;;;;;;;27.88;16.67;;;15.10;99.90;;;;;;5057859;28;20045;-87
2022/08/26 06:54:59;;;;;;;30.65;15.70;;;15.20;99.90;;;;;;5029995;28;20048;-87
2022/08/26 06:57:27;;;;;;;29.65;14.88;;;15.30;99.90;;;;;;5046868;28;20056;-86
2022/08/26 06:59:57;;;;;;;;;;;15.30;99.90;;;;;;5047023;28;20045;-87
2022/08/26 07:02:25;;;;;;;33.13;18.92;;;15.40;99.90;;;;;;5045997;28;19928;-87
2022/08/26 07:04:55;;;;;;;25.17;15.27;;;15.50;99.90;;;;;;5045275;28;20400;-88
2022/08/26 07:07:23;;;;;;;31.08;18.10;;;15.50;99.90;;;;;;5048344;28;20040;-88
2022/08/26 07:09:51;;;;;;;32.25;15.45;;;15.60;99.90;;;;;;5038589;28;20060;-87
2022/08/26 07:12:20;;;;;;;35.90;17.67;;;15.70;99.90;;;;;;5049109;28;20040;-88
2022/08/26 07:14:50;;;;;;;33.33;17.13;;;15.80;99.90;;;;;;5031532;28;20412;-87
2022/08/26 07:17:20;;;;;;;32.47;16.30;;;15.90;99.90;;;;;;5010283;28;20056;-88
2022/08/26 07:19:52;;;;;;;;;;;15.90;99.90;;;;;;5028459;28;20056;-87
2022/08/26 07:22:21;;;;;;;31.20;15.75;;;16.00;99.90;;;;;;5044175;28;20224;-86
2022/08/26 07:24:52;;;;;;;27.65;15.95;;;16.00;99.90;;;;;;5030176;28;20404;-87
2022/08/26 07:27:20;;;;;;;28.00;16.27;;;16.10;99.90;;;;;;5045821;28;20514;-87
2022/08/26 07:29:47;;;;;;;31.58;17.25;;;16.20;99.90;;;;;;5044348;28;20052;-88
2022/08/26 07:32:19;;;;;;;29.77;14.95;;;16.20;99.90;;;;;;5046811;28;20052;-87
2022/08/26 07:34:49;;;;;;;24.40;14.48;;;16.30;99.90;;;;;;5029632;28;20048;-88
2022/08/26 07:37:17;;;;;;;26.45;15.35;;;16.40;99.90;;;;;;5046316;28;20059;-87
2022/08/26 07:39:47;;;;;;;26.37;15.90;;;16.40;99.90;;;;;;5040991;28;20044;-87
2022/08/26 07:42:18;;;;;;;28.55;14.30;;;16.50;99.90;;;;;;5048072;28;20045;-87
2022/08/26 07:44:47;;;;;;;26.20;15.50;;;16.50;99.90;;;;;;5046463;28;20045;-86
2022/08/26 07:47:16;;;;;;;27.33;16.45;;;16.60;99.90;;;;;;5046350;28;20049;-87
2022/08/26 07:49:55;;;;;;;22.27;12.55;;;16.70;99.90;;;;;;5047011;28;20045;-87
2022/08/26 07:52:24;;;;;;;23.27;13.35;;;16.80;99.90;;;;;;5030763;28;20068;-87
2022/08/26 07:54:57;;;;;;;;;;;16.90;99.90;;;;;;5048305;28;20056;-87
2022/08/26 07:57:26;;;;;;;27.55;15.07;;;16.90;99.90;;;;;;5060601;28;19921;-87
2022/08/26 07:59:56;;;;;;;24.88;14.57;;;17.00;99.90;;;;;;5021499;28;20068;-87
2022/08/26 08:02:26;;;;;;;20.48;10.07;;;17.10;99.90;;;;;;5057194;28;20048;-87
2022/08/26 08:04:55;;;;;;;25.40;12.30;;;17.10;99.90;;;;;;5032096;28;20761;-87
2022/08/26 08:07:23;;;;;;;26.15;11.98;;;17.20;99.90;;;;;;5030740;28;20163;-88
2022/08/26 08:10:18;;;;;;;24.70;9.60;;;17.20;99.90;;;;;;5030335;28;20064;-87
2022/08/26 08:12:48;;;;;;;16.02;8.52;;;17.30;99.90;;;;;;5042668;28;20045;-88
2022/08/26 08:15:22;;;;;;;18.80;7.68;;;17.40;99.90;;;;;;5027625;28;20545;-87
2022/08/26 08:18:16;;;;;;;18.63;6.53;;;17.50;99.90;;;;;;5042381;28;20052;-88
2022/08/26 08:20:51;;;;;;;12.40;5.70;;;17.50;99.90;;;;;;4699362;28;10000514;-88
2022/08/26 08:23:25;;;;;;;14.43;6.78;;;17.60;99.90;;;;;;5048700;28;20338;-86
2022/08/26 08:26:05;;;;;;;8.63;4.70;;;17.70;99.90;;;;;;5029296;28;20041;-86
2022/08/26 08:28:35;;;;;;;;;;;17.80;99.90;;;;;;5044546;28;20045;-87
2022/08/26 08:31:04;;;;;;;16.75;6.15;;;17.90;99.90;;;;;;5044139;28;20047;-88
2022/08/26 08:33:33;;;;;;;13.93;6.15;;;18.00;99.90;;;;;;5058964;28;20052;-87
2022/08/26 08:36:05;;;;;;;11.13;5.38;;;18.00;99.90;;;;;;5028102;28;20096;-85
2022/08/26 08:38:35;;;;;;;17.05;7.60;;;18.10;99.90;;;;;;5041546;28;20052;-87
2022/08/26 08:41:03;;;;;;;15.68;6.22;;;18.20;99.90;;;;;;5057756;28;20044;-87
2022/08/26 08:43:40;;;;;;;17.05;6.07;;;18.20;99.90;;;;;;5030153;28;20049;-84
2022/08/26 08:46:14;;;;;;;13.75;5.38;;;18.30;99.90;;;;;;5043818;28;20055;-88
2022/08/26 08:48:47;;;;;;;16.00;5.78;;;18.40;99.90;;;;;;5044236;28;20049;-88
2022/08/26 08:51:44;;;;;;;13.45;6.00;;;18.40;99.90;;;;;;5042576;28;20037;-88
2022/08/26 08:54:13;;;;;;;12.95;5.72;;;18.50;99.90;;;;;;5042359;28;20053;-88
2022/08/26 08:56:51;;;;;;;17.70;5.57;;;18.50;99.90;;;;;;5043753;28;20045;-87
2022/08/26 08:59:26;;;;;;;10.90;6.00;;;18.70;99.90;;;;;;5041805;28;20511;-87
2022/08/26 09:02:13;;;;;;;8.75;4.60;;;18.70;99.90;;;;;;5058911;28;20045;-88
2022/08/26 09:05:23;;;;;;;7.93;3.67;;;18.80;99.90;;;;;;5027934;28;20263;-88
2022/08/26 09:07:58;;;;;;;8.77;4.03;;;18.90;99.90;;;;;;5036659;28;20049;-86
2022/08/26 09:10:53;;;;;;;12.40;4.20;;;19.00;99.90;;;;;;5038952;28;20063;-86
2022/08/26 09:13:26;;;;;;;14.80;5.72;;;19.20;99.90;;;;;;5066756;28;20063;-85
2022/08/26 09:16:23;;;;;;;14.90;5.15;;;19.10;99.90;;;;;;5051968;28;20072;-85
2022/08/26 09:19:20;;;;;;;7.28;3.83;;;19.20;99.90;;;;;;5058026;28;20051;-86
2022/08/26 09:21:59;;;;;;;15.63;4.47;;;19.30;99.90;;;;;;5048278;28;20064;-86
2022/08/26 09:24:30;;;;;;;7.30;3.42;;;19.30;99.90;;;;;;5029895;28;20060;-87
2022/08/26 09:26:58;;;;;;;12.38;4.45;;;19.40;99.90;;;;;;5027262;28;20381;-89
2022/08/26 09:29:29;;;;;;;10.35;3.95;;;19.50;99.90;;;;;;5043055;28;20383;-87
2022/08/26 09:32:23;;;;;;;9.90;4.05;;;19.50;99.90;;;;;;5041985;28;20063;-88
2022/08/26 09:34:59;;;;;;;9.57;3.40;;;19.60;99.00;;;;;;5040721;28;20649;-89
2022/08/26 09:37:36;;;;;;;9.40;2.53;;;19.70;99.90;;;;;;5025820;28;20053;-87
2022/08/26 09:40:15;;;;;;;17.10;2.70;;;19.80;98.90;;;;;;5029062;28;20057;-89
2022/08/26 09:42:44;;;;;;;7.10;2.75;;;19.90;98.80;;;;;;5044430;28;20056;-84
2022/08/26 09:45:22;;;;;;;9.32;2.97;;;19.90;98.80;;;;;;5046441;28;20057;-86
2022/08/26 09:47:54;;;;;;;12.90;2.78;;;20.00;98.60;;;;;;5041182;28;20045;-86
2022/08/26 09:50:30;;;;;;;9.05;2.75;;;20.00;98.20;;;;;;5046796;28;20037;-85
2022/08/26 09:53:10;;;;;;;10.65;2.15;;;20.00;98.10;;;;;;5045832;28;20072;-86
2022/08/26 09:55:43;;;;;;;7.35;2.70;;;20.10;97.80;;;;;;5031000;28;20041;-91
2022/08/26 09:58:29;;;;;;;10.65;2.92;;;20.10;97.90;;;;;;5040070;28;20053;-88
2022/08/26 10:01:02;;;;;;;7.93;2.60;;;20.20;97.50;;;;;;5043360;28;20068;-88
2022/08/26 10:03:36;;;;;;;10.82;3.08;;;20.30;97.10;;;;;;5043755;28;20052;-88
2022/08/26 10:06:19;;;;;;;7.82;2.30;;;20.40;97.10;;;;;;5028564;28;20746;-86
2022/08/26 10:09:01;;;;;;;11.80;2.38;;;20.50;96.90;;;;;;5045444;28;20053;-86
2022/08/26 10:12:22;;;;;;;;;;;;;;;;;;;;;
2022/08/26 10:15:09;;;;;;;10.05;4.10;;;20.70;96.60;;;;;;5043055;28;20496;-85
2022/08/26 10:17:52;;;;;;;15.15;3.10;;;20.80;96.90;;;;;;5031765;28;20445;-86
2022/08/26 10:20:27;;;;;;;14.93;3.63;;;20.90;95.90;;;;;;5029340;28;20656;-86
2022/08/26 10:23:19;;;;;;;7.03;1.85;;;21.00;95.90;;;;;;5048371;28;20061;-87
2022/08/26 10:26:03;;;;;;;6.65;2.10;;;21.10;94.60;;;;;;5032856;28;20053;-88
2022/08/26 10:28:42;;;;;;;7.70;2.05;;;21.20;95.00;;;;;;5032556;28;20041;-87
2022/08/26 10:31:50;;;;;;;6.93;2.30;;;21.30;94.80;;;;;;5049053;28;20060;-89
2022/08/26 10:34:19;;;;;;;14.20;2.45;;;21.40;92.60;;;;;;5029731;28;20416;-87
2022/08/26 10:36:52;;;;;;;11.93;2.65;;;21.40;94.20;;;;;;5032065;28;20049;-88
2022/08/26 10:39:51;;;;;;;10.23;2.90;;;21.50;94.00;;;;;;5044332;28;20050;-86
2022/08/26 10:42:28;;;;;;;8.77;3.03;;;21.50;93.80;;;;;;5043240;28;20045;-87
2022/08/26 10:45:04;;;;;;;10.57;3.15;;;21.60;93.60;;;;;;5032437;28;20239;-93
2022/08/26 10:47:43;;;;;;;8.15;2.97;;;21.70;93.30;;;;;;5056833;28;20057;-88
2022/08/26 10:50:11;;;;;;;7.55;2.60;;;21.70;93.30;;;;;;5032749;28;20052;-86
2022/08/26 10:53:00;;;;;;;7.35;2.65;;;21.80;93.30;;;;;;5053974;28;20045;-87
2022/08/26 10:55:59;;;;;;;7.70;2.88;;;21.90;92.80;;;;;;5047633;28;20476;-88
2022/08/26 10:58:31;;;;;;;11.30;3.83;;;22.00;91.70;;;;;;5036165;28;20140;-87
2022/08/26 11:04:34;;;;;;;8.55;3.25;;;22.20;92.40;;;;;;5047529;28;20045;-88
2022/08/26 11:07:35;;;;;;;11.00;2.72;;;22.30;91.60;;;;;;5037235;28;20056;-87
2022/08/26 11:10:03;;;;;;;11.27;3.92;;;22.60;91.30;;;;;;5047889;28;20045;-88
2022/08/26 11:12:37;;;;;;;10.57;2.88;;;22.80;92.00;;;;;;5032320;28;20045;-87
